createdAt,value
2022-12-16T00:02:23.141Z,7.07
2022-12-16T00:05:07.943Z,8.20
2022-12-16T00:07:51.776Z,6.70
2022-12-16T00:10:53.122Z,7.50
2022-12-16T00:13:41.544Z,8.13
2022-12-16T00:16:25.362Z,8.93
2022-12-16T00:19:09.287Z,9.00
2022-12-16T00:21:52.991Z,8.50
2022-12-16T00:24:38.718Z,9.90
2022-12-16T00:27:22.480Z,9.77
2022-12-16T00:30:09.016Z,11.37
2022-12-16T00:32:52.735Z,10.93
2022-12-16T00:35:40.522Z,10.23
2022-12-16T00:38:28.278Z,10.90
2022-12-16T00:41:12.060Z,10.10
2022-12-16T00:43:55.760Z,9.97
2022-12-16T00:46:41.080Z,12.00
2022-12-16T00:49:24.871Z,12.67
2022-12-16T00:52:08.656Z,13.30
2022-12-16T00:54:52.457Z,14.67
2022-12-16T00:57:36.226Z,18.30
2022-12-16T01:00:20.532Z,17.90
2022-12-16T01:03:05.952Z,17.73
2022-12-16T01:05:50.070Z,19.43
2022-12-16T01:08:34.314Z,20.17
2022-12-16T01:11:18.972Z,21.33
2022-12-16T01:14:02.690Z,22.13
2022-12-16T01:16:46.417Z,22.10
2022-12-16T01:19:31.778Z,23.37
2022-12-16T01:22:15.573Z,21.00
2022-12-16T01:24:59.476Z,21.17
2022-12-16T01:27:43.157Z,21.73
2022-12-16T01:30:26.999Z,21.67
2022-12-16T01:33:11.950Z,21.80
2022-12-16T01:36:02.095Z,21.53
2022-12-16T01:38:46.194Z,20.40
2022-12-16T01:41:30.081Z,19.93
2022-12-16T01:44:16.129Z,18.27
2022-12-16T01:47:04.326Z,15.60
2022-12-16T01:49:53.719Z,16.30
2022-12-16T01:52:46.259Z,16.70
2022-12-16T01:55:33.746Z,18.13
2022-12-16T01:58:22.455Z,18.03
2022-12-16T02:01:06.856Z,17.43
2022-12-16T02:03:51.757Z,18.33
2022-12-16T02:06:36.201Z,18.23
2022-12-16T02:09:21.904Z,19.73
2022-12-16T02:12:25.580Z,19.73
2022-12-16T02:15:22.568Z,17.83
2022-12-16T02:18:17.717Z,17.77
2022-12-16T02:21:29.233Z,18.10
2022-12-16T02:24:45.155Z,17.53
2022-12-16T02:27:58.253Z,18.43
2022-12-16T02:30:57.920Z,19.20
2022-12-16T02:33:50.620Z,19.23
2022-12-16T02:36:47.024Z,19.47
2022-12-16T02:39:38.677Z,18.67
2022-12-16T02:42:31.020Z,20.60
2022-12-16T02:45:18.353Z,20.87
2022-12-16T02:48:03.533Z,19.70
2022-12-16T02:50:51.227Z,20.27
2022-12-16T02:53:40.225Z,20.10
2022-12-16T02:56:32.444Z,20.17
2022-12-16T02:59:23.494Z,21.20
2022-12-16T03:02:14.326Z,20.17
2022-12-16T03:05:07.601Z,19.73
2022-12-16T03:07:53.785Z,20.63
2022-12-16T03:10:42.566Z,19.13
2022-12-16T03:13:29.130Z,18.97
2022-12-16T03:16:17.703Z,19.23
2022-12-16T03:19:06.866Z,18.50
2022-12-16T03:21:57.026Z,19.33
2022-12-16T03:24:41.957Z,17.17
2022-12-16T03:27:30.522Z,15.73
2022-12-16T03:30:18.650Z,14.87
2022-12-16T03:33:05.517Z,15.50
2022-12-16T03:35:53.282Z,15.23
2022-12-16T03:38:40.208Z,15.90
2022-12-16T03:41:24.882Z,15.27
2022-12-16T03:44:09.473Z,17.60
2022-12-16T03:46:53.828Z,16.90
2022-12-16T03:49:37.701Z,19.37
2022-12-16T03:52:21.562Z,16.87
2022-12-16T03:55:07.116Z,16.17
2022-12-16T03:57:51.060Z,16.30
2022-12-16T04:00:34.918Z,15.77
2022-12-16T04:03:18.915Z,16.80
2022-12-16T04:06:03.006Z,16.57
2022-12-16T04:08:46.973Z,16.47
2022-12-16T04:12:03.942Z,18.20
2022-12-16T04:15:04.257Z,18.17
2022-12-16T04:18:05.482Z,19.10
2022-12-16T04:21:10.885Z,18.87
2022-12-16T04:24:15.898Z,18.20
2022-12-16T04:27:20.697Z,18.23
2022-12-16T04:30:20.240Z,17.93
2022-12-16T04:33:24.511Z,16.63
2022-12-16T04:36:26.396Z,17.60
2022-12-16T04:39:27.742Z,18.27
2022-12-16T04:42:30.563Z,16.97
2022-12-16T04:45:32.185Z,19.60
2022-12-16T04:48:33.542Z,18.30
2022-12-16T04:51:34.523Z,18.63
2022-12-16T04:54:35.623Z,18.43
2022-12-16T04:57:38.237Z,18.60
2022-12-16T05:00:39.917Z,17.63
2022-12-16T05:03:41.663Z,17.70
2022-12-16T05:06:43.220Z,16.50
2022-12-16T05:09:44.751Z,17.10
2022-12-16T05:12:47.281Z,16.83
2022-12-16T05:15:48.315Z,14.87
2022-12-16T05:18:49.277Z,15.20
2022-12-16T05:21:50.725Z,14.83
2022-12-16T05:24:53.161Z,15.07
2022-12-16T05:27:56.962Z,13.73
2022-12-16T05:30:58.480Z,13.73
2022-12-16T05:34:00.150Z,14.00
2022-12-16T05:37:01.651Z,15.10
2022-12-16T05:40:03.230Z,14.70
2022-12-16T05:43:10.914Z,13.93
2022-12-16T05:46:16.723Z,13.43
2022-12-16T05:49:18.550Z,14.47
2022-12-16T05:52:19.872Z,14.33
2022-12-16T05:55:21.464Z,13.97
2022-12-16T05:58:24.157Z,12.50
2022-12-16T06:01:25.607Z,12.67
2022-12-16T06:04:27.347Z,12.43
2022-12-16T06:07:28.947Z,11.77
2022-12-16T06:10:30.504Z,11.50
2022-12-16T06:13:33.492Z,12.90
2022-12-16T06:16:35.631Z,12.30
2022-12-16T06:19:37.003Z,12.17
2022-12-16T06:22:41.881Z,11.90
2022-12-16T06:25:48.310Z,11.50
2022-12-16T06:28:50.994Z,10.17
2022-12-16T06:31:52.233Z,10.77
2022-12-16T06:34:53.394Z,11.50
2022-12-16T06:37:53.623Z,10.10
2022-12-16T06:40:55.119Z,11.63
2022-12-16T06:43:57.779Z,12.97
2022-12-16T06:46:59.091Z,15.43
2022-12-16T06:50:00.541Z,11.60
2022-12-16T06:53:01.897Z,15.63
2022-12-16T06:56:03.324Z,10.17
2022-12-16T06:59:06.060Z,12.60
2022-12-16T07:02:07.088Z,10.90
2022-12-16T07:05:08.688Z,12.63
2022-12-16T07:08:10.235Z,15.07
2022-12-16T07:11:16.527Z,13.77
2022-12-16T07:14:19.796Z,11.90
2022-12-16T07:17:21.004Z,14.20
2022-12-16T07:20:22.888Z,11.83
2022-12-16T07:23:24.302Z,11.33
2022-12-16T07:26:25.688Z,10.07
2022-12-16T07:29:28.095Z,9.80
2022-12-16T07:32:29.180Z,10.47
2022-12-16T07:35:30.150Z,10.67
2022-12-16T07:38:31.553Z,10.90
2022-12-16T07:41:32.823Z,10.57
2022-12-16T07:44:35.455Z,12.40
2022-12-16T07:47:36.899Z,11.00
2022-12-16T07:50:38.472Z,9.17
2022-12-16T07:53:40.429Z,15.80
2022-12-16T07:56:42.013Z,10.80
2022-12-16T07:59:44.594Z,10.10
2022-12-16T08:02:46.004Z,10.53
2022-12-16T08:05:47.617Z,10.73
2022-12-16T08:08:48.591Z,10.97
2022-12-16T08:11:49.864Z,10.23
2022-12-16T08:14:58.148Z,13.00
2022-12-16T08:18:01.458Z,10.47
2022-12-16T08:21:02.896Z,10.70
2022-12-16T08:24:04.302Z,11.47
2022-12-16T08:27:05.736Z,10.10
2022-12-16T08:30:08.113Z,11.13
2022-12-16T08:33:18.540Z,13.03
2022-12-16T08:36:20.437Z,12.60
2022-12-16T08:39:21.895Z,12.40
2022-12-16T08:42:23.207Z,12.70
2022-12-16T08:45:26.381Z,12.00
2022-12-16T08:48:27.861Z,13.33
2022-12-16T08:51:29.117Z,12.97
2022-12-16T08:54:30.507Z,12.73
2022-12-16T08:57:31.986Z,13.50
2022-12-16T09:00:35.307Z,16.37
2022-12-16T09:03:36.551Z,17.60
2022-12-16T09:06:40.672Z,17.50
2022-12-16T09:09:42.375Z,15.90
2022-12-16T09:12:43.789Z,18.57
2022-12-16T09:15:46.302Z,16.57
2022-12-16T09:18:47.670Z,13.90
2022-12-16T09:21:49.101Z,14.93
2022-12-16T09:24:50.489Z,14.00
2022-12-16T09:27:53.424Z,17.30
2022-12-16T09:30:55.853Z,16.00
2022-12-16T09:33:57.223Z,17.67
2022-12-16T09:36:58.418Z,15.03
2022-12-16T09:40:00.072Z,17.13
2022-12-16T09:43:09.671Z,38.40
2022-12-16T09:46:19.010Z,37.70
2022-12-16T09:49:32.568Z,43.93
2022-12-16T09:52:38.146Z,30.57
2022-12-16T09:55:44.515Z,18.73
2022-12-16T09:58:49.359Z,14.30
2022-12-16T10:01:56.090Z,19.77
2022-12-16T10:04:57.614Z,17.93
2022-12-16T10:08:05.584Z,13.60
2022-12-16T10:11:16.573Z,12.80
2022-12-16T10:14:23.644Z,11.67
2022-12-16T10:17:31.408Z,13.67
2022-12-16T10:20:43.335Z,13.53
2022-12-16T10:23:50.365Z,11.33
2022-12-16T10:27:01.058Z,12.90
2022-12-16T10:30:05.205Z,14.97
2022-12-16T10:33:09.369Z,12.30
2022-12-16T10:36:11.719Z,11.53
2022-12-16T10:39:16.595Z,12.00
2022-12-16T10:42:21.089Z,11.50
2022-12-16T10:45:23.494Z,10.13
2022-12-16T10:48:28.646Z,11.50
2022-12-16T10:51:33.002Z,11.45
2022-12-16T10:54:46.577Z,9.73
2022-12-16T10:57:59.567Z,10.90
2022-12-16T11:01:04.055Z,10.88
2022-12-16T11:04:06.818Z,11.98
2022-12-16T11:07:08.161Z,9.55
2022-12-16T11:10:10.530Z,10.88
2022-12-16T11:13:26.006Z,11.23
2022-12-16T11:16:31.049Z,9.18
2022-12-16T11:19:40.987Z,9.57
2022-12-16T11:22:42.841Z,7.68
2022-12-16T11:25:44.211Z,7.93
2022-12-16T11:28:45.662Z,7.80
2022-12-16T11:31:47.239Z,8.70
2022-12-16T11:34:50.931Z,7.10
2022-12-16T11:37:53.793Z,7.18
2022-12-16T11:40:56.744Z,7.75
2022-12-16T11:44:01.331Z,8.40
2022-12-16T11:47:02.937Z,8.45
2022-12-16T11:50:05.307Z,8.55
2022-12-16T11:53:14.588Z,8.30
2022-12-16T11:56:16.611Z,8.30
2022-12-16T11:59:22.418Z,7.65
2022-12-16T12:02:31.867Z,8.15
2022-12-16T12:05:34.960Z,9.02
2022-12-16T12:08:46.283Z,10.90
2022-12-16T12:11:50.393Z,11.00
2022-12-16T12:14:58.071Z,11.68
2022-12-16T12:18:06.648Z,12.68
2022-12-16T12:21:18.767Z,15.13
2022-12-16T12:24:28.059Z,10.68
2022-12-16T12:27:40.407Z,9.75
2022-12-16T12:30:42.742Z,9.13
2022-12-16T12:33:56.166Z,9.60
2022-12-16T12:37:07.305Z,9.50
2022-12-16T12:40:16.383Z,8.68
2022-12-16T12:43:19.761Z,9.70
2022-12-16T12:46:28.852Z,9.00
2022-12-16T12:49:38.443Z,7.80
2022-12-16T12:52:55.648Z,9.05
2022-12-16T12:56:02.010Z,9.77
2022-12-16T12:59:05.246Z,10.15
2022-12-16T13:02:09.350Z,10.02
2022-12-16T13:05:11.325Z,9.68
2022-12-16T13:08:13.688Z,11.30
2022-12-16T13:11:34.984Z,9.25
2022-12-16T13:15:20.791Z,11.35
2022-12-16T13:18:39.351Z,11.57
2022-12-16T13:22:03.242Z,10.68
2022-12-16T13:25:09.326Z,11.48
2022-12-16T13:28:15.217Z,11.95
2022-12-16T13:31:25.897Z,9.45
2022-12-16T13:34:46.054Z,11.95
2022-12-16T13:37:47.530Z,10.55
2022-12-16T13:41:07.631Z,11.27
2022-12-16T13:44:10.976Z,8.23
2022-12-16T13:47:13.605Z,10.52
2022-12-16T13:50:26.537Z,11.98
2022-12-16T13:53:30.267Z,12.88
2022-12-16T13:56:34.286Z,8.32
2022-12-16T13:59:39.443Z,9.23
2022-12-16T14:02:49.824Z,10.00
2022-12-16T14:05:56.000Z,9.57
2022-12-16T14:09:01.102Z,8.55
2022-12-16T14:12:08.650Z,9.63
2022-12-16T14:15:16.236Z,12.65
2022-12-16T14:18:24.797Z,15.10
2022-12-16T14:21:39.625Z,20.83
2022-12-16T14:24:44.484Z,18.25
2022-12-16T14:28:05.979Z,15.30
2022-12-16T14:31:07.365Z,22.92
2022-12-16T14:34:11.969Z,17.48
2022-12-16T14:37:13.404Z,18.00
2022-12-16T14:40:14.713Z,19.30
2022-12-16T14:43:17.111Z,18.17
2022-12-16T14:46:19.014Z,14.88
2022-12-16T14:49:25.933Z,15.43
2022-12-16T14:52:46.349Z,15.23
2022-12-16T14:55:50.173Z,26.07
2022-12-16T14:58:52.562Z,30.47
2022-12-16T15:01:54.161Z,32.10
2022-12-16T15:05:10.237Z,54.33
2022-12-16T15:08:11.607Z,70.33
2022-12-16T15:11:13.264Z,41.97
2022-12-16T15:14:19.041Z,38.07
2022-12-16T15:17:20.657Z,29.73
2022-12-16T15:20:22.820Z,40.27
2022-12-16T15:23:34.959Z,38.60
2022-12-16T15:26:37.733Z,38.77
2022-12-16T15:29:53.184Z,42.03
2022-12-16T15:32:54.719Z,36.90
2022-12-16T15:35:57.803Z,40.43
2022-12-16T15:38:59.687Z,44.13
2022-12-16T15:42:20.513Z,51.97
2022-12-16T15:45:24.038Z,51.43
2022-12-16T15:48:31.592Z,39.03
2022-12-16T15:51:47.938Z,35.40
2022-12-16T15:54:49.471Z,40.43
2022-12-16T15:57:52.499Z,47.07
2022-12-16T16:00:54.892Z,43.37
2022-12-16T16:03:57.217Z,54.57
2022-12-16T16:07:04.746Z,54.23
2022-12-16T16:10:06.367Z,53.90
2022-12-16T16:13:03.973Z,49.90
2022-12-16T16:16:06.693Z,48.63
2022-12-16T16:19:08.132Z,70.77
2022-12-16T16:22:09.398Z,43.40
2022-12-16T16:25:10.650Z,36.20
2022-12-16T16:28:11.729Z,66.37
2022-12-16T16:31:14.431Z,30.43
2022-12-16T16:34:16.055Z,38.07
2022-12-16T16:37:17.490Z,36.37
2022-12-16T16:40:19.478Z,26.87
2022-12-16T16:43:20.258Z,29.57
2022-12-16T16:46:33.092Z,34.13
2022-12-16T16:49:40.683Z,38.77
2022-12-16T16:52:44.081Z,58.43
2022-12-16T16:55:45.180Z,65.43
2022-12-16T16:58:50.309Z,53.53
2022-12-16T17:01:52.937Z,36.70
2022-12-16T17:04:53.936Z,34.97
2022-12-16T17:07:55.535Z,30.33
2022-12-16T17:10:57.047Z,27.73
2022-12-16T17:13:57.982Z,43.03
2022-12-16T17:17:00.483Z,31.73
2022-12-16T17:20:01.618Z,45.97
2022-12-16T17:23:05.903Z,64.03
2022-12-16T17:26:07.372Z,46.23
2022-12-16T17:29:10.463Z,49.33
2022-12-16T17:32:12.917Z,27.93
2022-12-16T17:35:14.448Z,25.20
2022-12-16T17:38:15.553Z,24.97
2022-12-16T17:41:16.958Z,29.97
2022-12-16T17:44:29.949Z,30.53
2022-12-16T17:47:32.845Z,29.30
2022-12-16T17:50:34.260Z,28.97
2022-12-16T17:53:36.133Z,33.80
2022-12-16T17:56:37.797Z,28.43
2022-12-16T17:59:39.232Z,36.87
2022-12-16T18:02:41.689Z,32.73
2022-12-16T18:05:44.878Z,32.90
2022-12-16T18:08:46.443Z,39.43
2022-12-16T18:11:47.263Z,30.00
2022-12-16T18:14:48.766Z,20.80
2022-12-16T18:17:51.538Z,19.77
2022-12-16T18:20:52.896Z,24.20
2022-12-16T18:23:54.435Z,26.37
2022-12-16T18:26:55.755Z,29.30
2022-12-16T18:29:57.031Z,29.37
2022-12-16T18:32:59.573Z,26.93
2022-12-16T18:36:01.067Z,39.20
2022-12-16T18:39:02.480Z,37.27
2022-12-16T18:42:05.284Z,42.07
2022-12-16T18:45:07.764Z,29.87
2022-12-16T18:48:10.453Z,24.27
2022-12-16T18:51:12.287Z,43.03
2022-12-16T18:54:13.126Z,44.77
2022-12-16T18:57:14.480Z,31.47
2022-12-16T19:00:15.376Z,31.27
2022-12-16T19:03:18.009Z,21.97
2022-12-16T19:06:19.369Z,26.73
2022-12-16T19:09:20.679Z,28.33
2022-12-16T19:12:21.469Z,26.17
2022-12-16T19:15:22.749Z,30.40
2022-12-16T19:18:25.252Z,25.97
2022-12-16T19:21:27.582Z,23.23
2022-12-16T19:24:28.895Z,21.70
2022-12-16T19:27:29.741Z,28.33
2022-12-16T19:30:30.996Z,36.57
2022-12-16T19:33:33.545Z,32.60
2022-12-16T19:36:34.574Z,30.20
2022-12-16T19:39:36.156Z,30.73
2022-12-16T19:42:37.553Z,26.00
2022-12-16T19:45:38.978Z,24.00
2022-12-16T19:48:41.461Z,26.20
2022-12-16T19:51:43.186Z,30.67
2022-12-16T19:54:58.682Z,33.13
2022-12-16T19:57:59.763Z,29.77
2022-12-16T20:01:00.827Z,29.17
2022-12-16T20:04:03.284Z,33.97
2022-12-16T20:07:04.764Z,30.17
2022-12-16T20:10:05.593Z,29.73
2022-12-16T20:13:06.384Z,30.37
2022-12-16T20:16:07.629Z,31.10
2022-12-16T20:19:10.096Z,31.57
2022-12-16T20:22:14.535Z,34.27
2022-12-16T20:25:19.977Z,27.13
2022-12-16T20:31:42.730Z,28.00
2022-12-16T20:34:45.010Z,26.03
2022-12-16T20:37:56.184Z,28.93
2022-12-16T20:40:56.404Z,27.03
2022-12-16T20:43:57.763Z,27.67
2022-12-16T20:46:59.223Z,25.87
2022-12-16T20:50:01.824Z,24.47
2022-12-16T20:53:04.873Z,34.57
2022-12-16T20:56:06.232Z,31.77
2022-12-16T20:59:07.800Z,25.30
2022-12-16T21:02:30.345Z,24.13
2022-12-16T21:05:32.707Z,21.23
2022-12-16T21:08:33.657Z,22.20
2022-12-16T21:11:35.336Z,22.70
2022-12-16T21:14:36.616Z,20.03
2022-12-16T21:14:42.429Z,29.20
2022-12-16T21:17:38.040Z,24.43
2022-12-16T21:20:40.573Z,20.43
2022-12-16T21:23:42.739Z,19.03
2022-12-16T21:26:44.220Z,20.20
2022-12-16T21:29:45.136Z,23.30
2022-12-16T21:32:46.548Z,23.60
2022-12-16T21:35:49.030Z,26.03
2022-12-16T21:38:50.311Z,24.53
2022-12-16T21:41:51.641Z,24.87
2022-12-16T21:44:53.144Z,24.50
2022-12-16T21:47:57.937Z,24.30
2022-12-16T21:51:00.522Z,22.37
2022-12-16T21:54:08.270Z,29.13
2022-12-16T21:57:11.554Z,25.17
2022-12-16T22:00:12.954Z,22.43
2022-12-16T22:03:14.488Z,24.27
2022-12-16T22:06:18.251Z,27.37
2022-12-16T22:09:19.209Z,28.93
2022-12-16T22:12:20.545Z,24.73
2022-12-16T22:15:21.966Z,27.97
2022-12-16T22:18:23.413Z,24.90
2022-12-16T22:21:26.054Z,22.93
2022-12-16T22:24:26.657Z,22.43
2022-12-16T22:27:27.937Z,22.73
2022-12-16T22:30:30.100Z,20.77
2022-12-16T22:33:31.533Z,21.53
2022-12-16T22:36:34.219Z,22.07
2022-12-16T22:39:38.799Z,18.93
2022-12-16T22:42:42.940Z,19.57
2022-12-16T22:45:43.964Z,19.23
2022-12-16T22:48:45.547Z,19.00
2022-12-16T22:51:48.178Z,18.77
2022-12-16T22:54:49.317Z,17.80
2022-12-16T22:57:53.391Z,17.77
2022-12-16T23:00:56.404Z,17.83
2022-12-16T23:03:58.028Z,18.37
2022-12-16T23:07:00.421Z,18.53
2022-12-16T23:10:01.771Z,20.70
2022-12-16T23:13:04.194Z,19.10
2022-12-16T23:16:05.901Z,19.10
2022-12-16T23:19:06.770Z,20.50
2022-12-16T23:22:09.487Z,19.30
2022-12-16T23:25:11.293Z,21.30
2022-12-16T23:28:12.562Z,20.63
2022-12-16T23:31:14.508Z,21.07
2022-12-16T23:34:15.840Z,22.97
2022-12-16T23:37:18.336Z,21.27
2022-12-16T23:40:19.848Z,21.73
2022-12-16T23:43:21.043Z,21.00
2022-12-16T23:46:22.514Z,18.83
2022-12-16T23:49:24.024Z,19.63
2022-12-16T23:52:26.747Z,18.60
2022-12-16T23:55:28.196Z,19.10
2022-12-16T23:58:29.696Z,19.50
